createdAt,value
2022-09-14T00:01:25.749Z,99544.31
2022-09-14T00:03:59.975Z,99544.79
2022-09-14T00:06:32.647Z,99534.90
2022-09-14T00:09:06.821Z,99535.36
2022-09-14T00:11:39.680Z,99533.87
2022-09-14T00:14:11.610Z,99528.71
2022-09-14T00:16:44.535Z,99528.72
2022-09-14T00:19:21.740Z,99528.15
2022-09-14T00:21:55.752Z,99531.13
2022-09-14T00:24:30.090Z,99526.63
2022-09-14T00:27:03.301Z,99525.24
2022-09-14T00:29:35.114Z,99524.45
2022-09-14T00:32:07.251Z,99523.65
2022-09-14T00:34:39.138Z,99525.34
2022-09-14T00:37:11.969Z,99522.66
2022-09-14T00:39:43.971Z,99520.64
2022-09-14T00:42:19.576Z,99514.96
2022-09-14T00:45:08.405Z,99524.48
2022-09-14T00:47:40.250Z,99533.29
2022-09-14T00:50:12.630Z,99533.97
2022-09-14T00:52:45.015Z,99530.64
2022-09-14T00:55:19.796Z,99531.52
2022-09-14T00:57:54.536Z,99529.61
2022-09-14T01:00:28.961Z,99532.62
2022-09-14T01:03:02.083Z,99530.33
2022-09-14T01:05:47.140Z,99531.31
2022-09-14T01:08:38.621Z,99529.77
2022-09-14T01:11:32.569Z,99534.05
2022-09-14T01:14:11.421Z,99533.48
2022-09-14T01:16:50.866Z,99531.70
2022-09-14T01:19:33.136Z,99528.24
2022-09-14T01:22:15.157Z,99525.16
2022-09-14T01:24:51.720Z,99525.05
2022-09-14T01:27:33.317Z,99530.08
2022-09-14T01:30:11.945Z,99527.52
2022-09-14T01:32:50.261Z,99528.50
2022-09-14T01:35:27.966Z,99524.36
2022-09-14T01:38:04.791Z,99525.11
2022-09-14T01:40:40.836Z,99518.48
2022-09-14T01:43:16.683Z,99517.61
2022-09-14T01:45:51.282Z,99520.23
2022-09-14T01:48:28.470Z,99517.02
2022-09-14T01:51:02.472Z,99504.63
2022-09-14T01:53:38.200Z,99501.57
2022-09-14T01:56:15.162Z,99505.20
2022-09-14T01:58:51.400Z,99507.97
2022-09-14T02:01:26.727Z,99510.98
2022-09-14T02:04:08.596Z,99509.61
2022-09-14T02:06:44.325Z,99506.96
2022-09-14T02:09:21.385Z,99504.16
2022-09-14T02:11:54.910Z,99505.56
2022-09-14T02:14:28.003Z,99504.75
2022-09-14T02:17:00.109Z,99508.52
2022-09-14T02:19:38.665Z,99509.75
2022-09-14T02:22:10.420Z,99505.94
2022-09-14T02:24:42.278Z,99501.11
2022-09-14T02:27:13.843Z,99498.98
2022-09-14T02:29:45.756Z,99500.30
2022-09-14T02:32:27.585Z,99502.01
2022-09-14T02:35:06.818Z,99497.94
2022-09-14T02:37:45.766Z,99494.80
2022-09-14T02:40:24.969Z,99486.73
2022-09-14T02:43:07.601Z,99485.13
2022-09-14T02:45:45.102Z,99484.27
2022-09-14T02:48:27.670Z,99482.48
2022-09-14T02:51:05.990Z,99476.42
2022-09-14T02:53:41.812Z,99476.05
2022-09-14T02:56:14.737Z,99479.73
2022-09-14T02:58:47.703Z,99475.58
2022-09-14T03:01:21.459Z,99477.93
2022-09-14T03:03:53.761Z,99479.23
2022-09-14T03:06:25.890Z,99485.31
2022-09-14T03:08:58.584Z,99484.52
2022-09-14T03:11:30.468Z,99483.17
2022-09-14T03:14:02.471Z,99478.81
2022-09-14T03:16:34.257Z,99472.82
2022-09-14T03:19:06.989Z,99474.14
2022-09-14T03:21:38.878Z,99476.70
2022-09-14T03:24:10.853Z,99478.95
2022-09-14T03:26:43.064Z,99476.48
2022-09-14T03:29:14.822Z,99479.11
2022-09-14T03:31:46.513Z,99478.69
2022-09-14T03:34:18.292Z,99477.59
2022-09-14T03:36:50.385Z,99478.34
2022-09-14T03:39:22.350Z,99469.50
2022-09-14T03:41:53.988Z,99477.80
2022-09-14T03:44:26.064Z,99477.95
2022-09-14T03:46:58.611Z,99476.38
2022-09-14T03:49:30.699Z,99478.43
2022-09-14T03:52:03.569Z,99477.64
2022-09-14T03:54:35.272Z,99477.09
2022-09-14T03:57:08.021Z,99477.16
2022-09-14T03:59:41.746Z,99471.77
2022-09-14T04:02:15.496Z,99469.95
2022-09-14T04:04:48.325Z,99476.67
2022-09-14T04:07:18.798Z,99475.60
2022-09-14T04:09:50.442Z,99475.57
2022-09-14T04:12:22.148Z,99478.21
2022-09-14T04:14:53.841Z,99480.05
2022-09-14T04:17:25.789Z,99471.28
2022-09-14T04:19:57.450Z,99471.21
2022-09-14T04:22:29.095Z,99475.42
2022-09-14T04:25:00.989Z,99471.38
2022-09-14T04:27:33.799Z,99468.05
2022-09-14T04:30:06.368Z,99465.11
2022-09-14T04:32:36.650Z,99471.27
2022-09-14T04:35:09.025Z,99474.02
2022-09-14T04:37:40.749Z,99471.21
2022-09-14T04:40:14.788Z,99476.54
2022-09-14T04:42:46.686Z,99479.39
2022-09-14T04:45:18.443Z,99484.52
2022-09-14T04:47:50.568Z,99481.52
2022-09-14T04:50:22.558Z,99486.85
2022-09-14T04:52:57.249Z,99486.52
2022-09-14T04:55:28.998Z,99489.70
2022-09-14T04:58:00.756Z,99497.52
2022-09-14T05:00:34.186Z,99497.02
2022-09-14T05:03:06.565Z,99496.48
2022-09-14T05:05:40.028Z,99499.30
2022-09-14T05:08:14.709Z,99495.83
2022-09-14T05:10:46.582Z,99492.47
2022-09-14T05:13:18.202Z,99492.54
2022-09-14T05:15:50.015Z,99501.38
2022-09-14T05:18:23.045Z,99499.73
2022-09-14T05:20:54.720Z,99498.95
2022-09-14T05:23:26.395Z,99496.70
2022-09-14T05:25:58.460Z,99495.92
2022-09-14T05:28:30.901Z,99498.58
2022-09-14T05:31:05.098Z,99498.29
2022-09-14T05:33:38.105Z,99497.40
2022-09-14T05:36:11.214Z,99498.30
2022-09-14T05:38:43.939Z,99498.94
2022-09-14T05:41:17.439Z,99492.88
2022-09-14T05:43:49.359Z,99495.14
2022-09-14T05:46:22.257Z,99490.84
2022-09-14T05:48:54.110Z,99495.16
2022-09-14T05:51:28.593Z,99489.71
2022-09-14T05:54:01.711Z,99490.65
2022-09-14T05:56:33.601Z,99492.54
2022-09-14T05:59:05.374Z,99490.56
2022-09-14T06:01:37.025Z,99489.71
2022-09-14T06:04:11.037Z,99489.97
2022-09-14T06:06:52.113Z,99493.39
2022-09-14T06:09:33.559Z,99492.12
2022-09-14T06:12:05.609Z,99489.05
2022-09-14T06:14:37.610Z,99493.30
2022-09-14T06:17:09.268Z,99498.03
2022-09-14T06:19:40.977Z,99498.17
2022-09-14T06:22:12.764Z,99493.53
2022-09-14T06:24:44.526Z,99493.41
2022-09-14T06:27:16.717Z,99489.38
2022-09-14T06:29:52.046Z,99491.80
2022-09-14T06:32:24.253Z,99492.88
2022-09-14T06:34:55.978Z,99493.83
2022-09-14T06:37:27.814Z,99496.48
2022-09-14T06:39:59.857Z,99499.31
2022-09-14T06:42:33.240Z,99503.32
2022-09-14T06:45:05.885Z,99504.09
2022-09-14T06:47:37.502Z,99510.09
2022-09-14T06:50:10.450Z,99505.05
2022-09-14T06:52:42.126Z,99506.73
2022-09-14T06:55:17.829Z,99501.98
2022-09-14T06:57:51.276Z,99500.77
2022-09-14T07:00:23.736Z,99499.39
2022-09-14T07:02:56.920Z,99506.89
2022-09-14T07:05:29.105Z,99512.60
2022-09-14T07:08:00.946Z,99509.16
2022-09-14T07:10:32.557Z,99509.23
2022-09-14T07:13:04.278Z,99507.61
2022-09-14T07:15:36.010Z,99502.66
2022-09-14T07:18:07.821Z,99505.77
2022-09-14T07:20:39.638Z,99504.70
2022-09-14T07:23:13.445Z,99504.13
2022-09-14T07:25:45.161Z,99505.00
2022-09-14T07:28:17.171Z,99503.77
2022-09-14T07:30:49.231Z,99506.37
2022-09-14T07:33:20.915Z,99503.61
2022-09-14T07:35:53.530Z,99501.83
2022-09-14T07:38:41.693Z,99514.30
2022-09-14T07:41:16.957Z,99514.71
2022-09-14T07:43:51.433Z,99509.99
2022-09-14T07:46:24.026Z,99515.14
2022-09-14T07:48:59.652Z,99518.19
2022-09-14T07:51:32.924Z,99516.92
2022-09-14T07:54:06.243Z,99514.56
2022-09-14T07:56:38.461Z,99511.33
2022-09-14T07:59:34.418Z,99513.21
2022-09-14T08:02:03.167Z,99517.02
2022-09-14T08:04:35.227Z,99514.55
2022-09-14T08:07:08.025Z,99515.60
2022-09-14T08:09:40.081Z,99516.39
2022-09-14T08:12:11.862Z,99511.04
2022-09-14T08:14:43.775Z,99511.91
2022-09-14T08:17:16.374Z,99513.43
2022-09-14T08:19:48.222Z,99513.18
2022-09-14T08:22:19.891Z,99513.80
2022-09-14T08:24:51.497Z,99514.37
2022-09-14T08:27:23.264Z,99511.92
2022-09-14T08:29:54.928Z,99509.20
2022-09-14T08:32:26.559Z,99496.66
2022-09-14T08:34:58.532Z,99499.28
2022-09-14T08:37:30.571Z,99500.48
2022-09-14T08:40:02.480Z,99498.02
2022-09-14T08:42:34.819Z,99493.91
2022-09-14T08:45:09.796Z,99492.84
2022-09-14T08:47:42.079Z,99493.02
2022-09-14T08:50:18.415Z,99495.16
2022-09-14T08:52:53.353Z,99499.43
2022-09-14T08:55:43.327Z,99497.16
2022-09-14T08:58:30.321Z,99495.23
2022-09-14T09:01:10.161Z,99488.85
2022-09-14T09:04:03.935Z,99488.16
2022-09-14T09:06:45.752Z,99485.66
2022-09-14T09:09:25.076Z,99493.23
2022-09-14T09:11:58.933Z,99498.80
2022-09-14T09:14:35.332Z,99498.98
2022-09-14T09:17:15.781Z,99507.80
2022-09-14T09:19:59.532Z,99504.85
2022-09-14T09:22:37.137Z,99500.65
2022-09-14T09:25:17.097Z,99495.03
2022-09-14T09:27:48.869Z,99496.66
2022-09-14T09:30:20.653Z,99494.90
2022-09-14T09:32:53.477Z,99492.41
2022-09-14T09:35:36.054Z,99488.67
2022-09-14T09:38:26.882Z,99486.67
2022-09-14T09:41:02.920Z,99487.61
2022-09-14T09:43:48.893Z,99486.55
2022-09-14T09:46:21.353Z,99485.95
2022-09-14T09:48:53.562Z,99484.38
2022-09-14T09:51:31.869Z,99484.29
2022-09-14T09:54:09.628Z,99485.66
2022-09-14T09:56:52.049Z,99480.57
2022-09-14T09:59:31.939Z,99481.52
2022-09-14T10:05:19.342Z,99486.55
2022-09-14T10:07:57.424Z,99487.71
2022-09-14T10:10:44.632Z,99485.38
2022-09-14T10:13:26.993Z,99484.72
2022-09-14T10:16:08.903Z,99482.47
2022-09-14T10:18:49.001Z,99481.04
2022-09-14T10:21:22.779Z,99479.16
2022-09-14T10:24:08.253Z,99478.77
2022-09-14T10:26:40.376Z,99475.75
2022-09-14T10:29:36.290Z,99469.29
2022-09-14T10:32:18.981Z,99473.02
2022-09-14T10:34:52.094Z,99467.98
2022-09-14T10:37:44.680Z,99465.02
2022-09-14T10:40:20.798Z,99458.80
2022-09-14T10:43:04.416Z,99455.91
2022-09-14T10:45:40.679Z,99454.52
2022-09-14T10:48:30.262Z,99447.50
2022-09-14T10:51:14.010Z,99441.65
2022-09-14T10:53:55.856Z,99447.44
2022-09-14T10:56:34.967Z,99449.34
2022-09-14T10:59:21.036Z,99447.20
2022-09-14T11:02:10.649Z,99443.33
2022-09-14T11:05:05.770Z,99440.07
2022-09-14T11:07:45.344Z,99438.79
2022-09-14T11:10:24.910Z,99440.49
2022-09-14T11:13:14.761Z,99442.14
2022-09-14T11:15:55.330Z,99444.66
2022-09-14T11:18:36.688Z,99431.63
2022-09-14T11:21:19.082Z,99434.80
2022-09-14T11:23:54.334Z,99438.22
2022-09-14T11:26:31.693Z,99438.23
2022-09-14T11:29:11.673Z,99442.66
2022-09-14T11:32:10.078Z,99442.13
2022-09-14T11:34:48.533Z,99438.86
2022-09-14T11:37:25.128Z,99433.73
2022-09-14T11:40:05.098Z,99430.20
2022-09-14T11:42:45.012Z,99415.05
2022-09-14T11:45:24.099Z,99411.96
2022-09-14T11:48:03.398Z,99418.43
2022-09-14T11:50:36.988Z,99416.61
2022-09-14T11:53:13.705Z,99412.73
2022-09-14T11:55:48.985Z,99417.85
2022-09-14T11:58:24.890Z,99417.16
2022-09-14T12:01:06.562Z,99409.41
2022-09-14T12:04:08.141Z,99407.71
2022-09-14T12:06:57.305Z,99416.83
2022-09-14T12:09:50.237Z,99415.41
2022-09-14T12:12:38.753Z,99414.64
2022-09-14T12:15:33.582Z,99417.77
2022-09-14T12:18:25.675Z,99420.34
2022-09-14T12:21:07.488Z,99415.28
2022-09-14T12:23:48.173Z,99414.28
2022-09-14T12:26:40.078Z,99420.58
2022-09-14T12:29:32.355Z,99426.33
2022-09-14T12:32:25.245Z,99422.02
2022-09-14T12:35:33.859Z,99418.13
2022-09-14T12:38:42.701Z,99420.27
2022-09-14T12:41:48.670Z,99413.98
2022-09-14T12:44:41.488Z,99411.73
2022-09-14T12:47:31.660Z,99407.55
2022-09-14T12:50:11.017Z,99405.17
2022-09-14T12:52:57.082Z,99402.70
2022-09-14T12:55:45.043Z,99402.84
2022-09-14T12:58:31.851Z,99398.55
2022-09-14T13:01:18.924Z,99394.58
2022-09-14T13:03:54.706Z,99394.84
2022-09-14T13:06:31.669Z,99388.52
2022-09-14T13:09:09.471Z,99382.88
2022-09-14T13:11:43.056Z,99386.28
2022-09-14T13:14:19.809Z,99389.22
2022-09-14T13:16:52.995Z,99386.83
2022-09-14T13:19:27.847Z,99386.10
2022-09-14T13:22:02.455Z,99384.83
2022-09-14T13:24:43.947Z,99383.63
2022-09-14T13:27:25.658Z,99381.30
2022-09-14T13:30:04.261Z,99379.56
2022-09-14T13:32:42.262Z,99378.20
2022-09-14T13:35:21.157Z,99372.02
2022-09-14T13:37:53.528Z,99362.82
2022-09-14T13:40:29.063Z,99360.12
2022-09-14T13:43:01.487Z,99360.14
2022-09-14T13:45:34.028Z,99361.48
2022-09-14T13:48:05.406Z,99359.13
2022-09-14T13:50:37.187Z,99357.53
2022-09-14T13:53:48.958Z,99354.55
2022-09-14T13:56:36.268Z,99348.94
2022-09-14T13:59:21.444Z,99348.80
2022-09-14T14:01:59.726Z,99345.70
2022-09-14T14:04:35.763Z,99343.84
2022-09-14T14:07:17.464Z,99343.71
2022-09-14T14:09:51.682Z,99341.08
2022-09-14T14:12:29.989Z,99342.17
2022-09-14T14:15:03.414Z,99341.65
2022-09-14T14:17:38.300Z,99341.77
2022-09-14T14:20:36.717Z,99335.79
2022-09-14T14:23:23.231Z,99332.45
2022-09-14T14:26:06.963Z,99334.12
2022-09-14T14:28:38.749Z,99332.98
2022-09-14T14:31:17.077Z,99320.27
2022-09-14T14:33:51.449Z,99320.59
2022-09-14T14:36:23.391Z,99317.63
2022-09-14T14:38:56.401Z,99312.66
2022-09-14T14:41:28.102Z,99316.27
2022-09-14T14:44:00.049Z,99315.30
2022-09-14T14:46:32.313Z,99313.98
2022-09-14T14:49:04.186Z,99320.21
2022-09-14T14:51:35.961Z,99317.50
2022-09-14T14:54:07.975Z,99313.02
2022-09-14T14:56:39.854Z,99313.90
2022-09-14T14:59:26.715Z,99310.56
2022-09-14T15:01:59.438Z,99311.11
2022-09-14T15:04:29.926Z,99313.72
2022-09-14T15:07:01.815Z,99316.04
2022-09-14T15:09:33.576Z,99316.26
2022-09-14T15:12:05.447Z,99313.85
2022-09-14T15:14:37.289Z,99319.31
2022-09-14T15:17:08.946Z,99307.11
2022-09-14T15:19:40.641Z,99296.31
2022-09-14T15:22:14.303Z,99291.78
2022-09-14T15:24:46.077Z,99291.05
2022-09-14T15:27:17.738Z,99291.89
2022-09-14T15:29:49.456Z,99293.45
2022-09-14T15:32:21.064Z,99297.46
2022-09-14T15:34:53.586Z,99297.48
2022-09-14T15:37:25.405Z,99307.42
2022-09-14T15:39:57.142Z,99303.27
2022-09-14T15:42:29.088Z,99298.20
2022-09-14T15:45:00.785Z,99299.77
2022-09-14T15:47:36.195Z,99297.71
2022-09-14T15:50:09.692Z,99298.86
2022-09-14T15:52:41.620Z,99298.50
2022-09-14T15:55:14.357Z,99303.36
2022-09-14T15:57:46.009Z,99306.38
2022-09-14T16:00:19.582Z,99304.83
2022-09-14T16:02:53.228Z,99301.83
2022-09-14T16:05:25.443Z,99301.40
2022-09-14T16:07:58.140Z,99299.29
2022-09-14T16:10:28.391Z,99298.26
2022-09-14T16:13:00.404Z,99293.10
2022-09-14T16:15:32.244Z,99296.70
2022-09-14T16:18:03.863Z,99294.71
2022-09-14T16:20:37.687Z,99293.39
2022-09-14T16:23:09.337Z,99291.66
2022-09-14T16:25:41.667Z,99289.66
2022-09-14T16:28:13.255Z,99289.30
2022-09-14T16:30:45.598Z,99290.32
2022-09-14T16:33:17.970Z,99290.77
2022-09-14T16:35:49.812Z,99290.77
2022-09-14T16:38:24.314Z,99288.92
2022-09-14T16:41:01.206Z,99291.30
2022-09-14T16:43:34.111Z,99291.06
2022-09-14T16:46:09.838Z,99288.42
2022-09-14T16:48:45.234Z,99287.27
2022-09-14T16:51:19.037Z,99283.55
2022-09-14T16:53:51.714Z,99284.52
2022-09-14T16:56:25.703Z,99284.62
2022-09-14T16:59:01.266Z,99287.11
2022-09-14T17:01:35.045Z,99288.14
2022-09-14T17:04:09.677Z,99288.04
2022-09-14T17:06:43.096Z,99287.54
2022-09-14T17:09:17.637Z,99293.95
2022-09-14T17:11:50.244Z,99298.11
2022-09-14T17:14:24.579Z,99297.27
2022-09-14T17:16:56.704Z,99298.85
2022-09-14T17:19:28.857Z,99297.90
2022-09-14T17:22:03.920Z,99299.28
2022-09-14T17:24:35.734Z,99300.83
2022-09-14T17:27:07.665Z,99305.74
2022-09-14T17:29:40.750Z,99304.73
2022-09-14T17:32:14.894Z,99304.30
2022-09-14T17:34:47.155Z,99305.27
2022-09-14T17:37:19.069Z,99301.02
2022-09-14T17:39:51.162Z,99299.33
2022-09-14T17:42:22.962Z,99299.03
2022-09-14T17:44:54.466Z,99294.65
2022-09-14T17:47:26.601Z,99290.41
2022-09-14T17:49:58.295Z,99288.97
2022-09-14T17:52:30.026Z,99288.65
2022-09-14T17:55:01.858Z,99287.77
2022-09-14T17:57:33.500Z,99285.80
2022-09-14T18:00:07.453Z,99281.20
2022-09-14T18:02:39.879Z,99283.41
2022-09-14T18:05:12.305Z,99283.90
2022-09-14T18:07:44.458Z,99281.09
2022-09-14T18:10:17.754Z,99279.67
2022-09-14T18:12:49.486Z,99275.39
2022-09-14T18:15:22.373Z,99275.50
2022-09-14T18:17:54.262Z,99277.26
2022-09-14T18:20:26.791Z,99275.64
2022-09-14T18:22:58.542Z,99272.89
2022-09-14T18:25:30.224Z,99272.62
2022-09-14T18:28:01.976Z,99267.41
2022-09-14T18:30:34.463Z,99268.23
2022-09-14T18:33:06.320Z,99264.15
2022-09-14T18:35:40.399Z,99268.50
2022-09-14T18:38:14.311Z,99266.31
2022-09-14T18:40:46.657Z,99262.91
2022-09-14T18:43:22.782Z,99263.45
2022-09-14T18:45:55.014Z,99260.75
2022-09-14T18:48:27.212Z,99261.55
2022-09-14T18:51:02.615Z,99263.23
2022-09-14T18:53:34.865Z,99260.08
2022-09-14T18:56:09.204Z,99247.20
2022-09-14T18:58:42.760Z,99245.23
2022-09-14T19:01:16.050Z,99241.59
2022-09-14T19:03:48.779Z,99239.27
2022-09-14T19:06:21.469Z,99237.95
2022-09-14T19:08:53.759Z,99238.58
2022-09-14T19:11:28.647Z,99243.27
2022-09-14T19:14:02.545Z,99247.64
2022-09-14T19:16:34.760Z,99243.05
2022-09-14T19:19:07.680Z,99243.15
2022-09-14T19:21:37.781Z,99245.71
2022-09-14T19:24:12.148Z,99244.56
2022-09-14T19:26:46.111Z,99240.87
2022-09-14T19:29:20.078Z,99236.36
2022-09-14T19:31:52.722Z,99234.10
2022-09-14T19:34:26.991Z,99238.08
2022-09-14T19:36:58.633Z,99234.80
2022-09-14T19:39:30.364Z,99239.23
2022-09-14T19:42:02.217Z,99231.80
2022-09-14T19:44:34.067Z,99229.20
2022-09-14T19:47:06.539Z,99231.96
2022-09-14T19:49:38.416Z,99237.45
2022-09-14T19:52:10.581Z,99236.24
2022-09-14T19:54:42.266Z,99235.14
2022-09-14T19:57:14.425Z,99238.58
2022-09-14T19:59:46.150Z,99236.83
2022-09-14T20:02:18.131Z,99231.71
2022-09-14T20:04:50.251Z,99232.02
2022-09-14T20:07:22.173Z,99236.70
2022-09-14T20:09:54.108Z,99240.17
2022-09-14T20:12:26.064Z,99235.20
2022-09-14T20:14:58.041Z,99229.48
2022-09-14T20:17:30.020Z,99227.30
2022-09-14T20:20:01.858Z,99229.21
2022-09-14T20:22:33.442Z,99224.55
2022-09-14T20:25:06.276Z,99227.39
2022-09-14T20:27:37.953Z,99225.86
2022-09-14T20:30:11.785Z,99222.16
2022-09-14T20:32:43.469Z,99225.81
2022-09-14T20:35:15.337Z,99222.02
2022-09-14T20:37:47.067Z,99221.68
2022-09-14T20:40:18.917Z,99218.89
2022-09-14T20:42:50.788Z,99223.48
2022-09-14T20:45:23.186Z,99220.48
2022-09-14T20:47:54.826Z,99219.98
2022-09-14T20:50:26.466Z,99215.96
2022-09-14T20:52:58.410Z,99213.39
2022-09-14T20:55:32.556Z,99213.20
2022-09-14T20:58:04.179Z,99217.40
2022-09-14T21:00:35.993Z,99216.55
2022-09-14T21:03:07.740Z,99218.14
2022-09-14T21:05:39.821Z,99221.98
2022-09-14T21:08:11.441Z,99223.49
2022-09-14T21:10:43.096Z,99227.99
2022-09-14T21:13:15.544Z,99222.20
2022-09-14T21:15:47.463Z,99216.18
2022-09-14T21:18:20.804Z,99217.09
2022-09-14T21:20:52.554Z,99214.03
2022-09-14T21:23:24.920Z,99211.32
2022-09-14T21:25:58.386Z,99207.59
2022-09-14T21:28:31.079Z,99209.45
2022-09-14T21:31:11.786Z,99212.10
2022-09-14T21:33:45.325Z,99208.81
2022-09-14T21:36:18.877Z,99201.21
2022-09-14T21:38:53.469Z,99207.61
2022-09-14T21:41:27.364Z,99205.11
2022-09-14T21:43:59.570Z,99202.42
2022-09-14T21:46:31.558Z,99207.10
2022-09-14T21:49:03.378Z,99201.62
2022-09-14T21:51:36.769Z,99201.80
2022-09-14T21:54:11.936Z,99204.23
2022-09-14T21:56:46.746Z,99201.34
2022-09-14T21:59:21.113Z,99201.05
2022-09-14T22:01:52.875Z,99199.52
2022-09-14T22:04:26.211Z,99194.30
2022-09-14T22:06:59.288Z,99189.11
2022-09-14T22:09:31.464Z,99188.38
2022-09-14T22:12:03.236Z,99186.32
2022-09-14T22:14:34.916Z,99190.73
2022-09-14T22:17:06.513Z,99194.58
2022-09-14T22:19:38.356Z,99197.67
2022-09-14T22:22:09.987Z,99197.54
2022-09-14T22:24:42.592Z,99190.91
2022-09-14T22:27:14.316Z,99188.80
2022-09-14T22:29:46.215Z,99186.39
2022-09-14T22:32:21.668Z,99185.15
2022-09-14T22:34:53.292Z,99181.40
2022-09-14T22:37:24.935Z,99178.80
2022-09-14T22:39:56.664Z,99177.89
2022-09-14T22:42:31.011Z,99181.20
2022-09-14T22:45:02.605Z,99177.67
2022-09-14T22:47:34.256Z,99177.29
2022-09-14T22:50:06.478Z,99175.23
2022-09-14T22:52:38.172Z,99178.50
2022-09-14T22:55:11.025Z,99181.86
2022-09-14T22:57:42.667Z,99180.85
2022-09-14T23:00:16.414Z,99178.72
2022-09-14T23:02:48.108Z,99177.34
2022-09-14T23:05:19.818Z,99169.89
2022-09-14T23:07:51.410Z,99169.85
2022-09-14T23:10:23.039Z,99172.48
2022-09-14T23:12:54.736Z,99175.05
2022-09-14T23:15:26.332Z,99178.14
2022-09-14T23:17:58.017Z,99173.92
2022-09-14T23:20:29.672Z,99166.03
2022-09-14T23:23:01.365Z,99155.96
2022-09-14T23:25:34.368Z,99157.02
2022-09-14T23:28:07.316Z,99160.52
2022-09-14T23:30:39.617Z,99160.49
2022-09-14T23:33:11.526Z,99156.06
2022-09-14T23:35:47.557Z,99159.63
2022-09-14T23:38:19.381Z,99148.65
2022-09-14T23:40:51.388Z,99148.25
2022-09-14T23:43:23.341Z,99140.85
2022-09-14T23:45:54.995Z,99132.80
2022-09-14T23:48:26.874Z,99135.90
2022-09-14T23:51:03.050Z,99135.44
2022-09-14T23:53:35.624Z,99132.88
2022-09-14T23:56:08.603Z,99129.45
2022-09-14T23:58:41.868Z,99127.97
